Sheldon, IA

8:16 AM CDT on April 27, 2017 (GMT -0500)
Sheldon Municipal

Weather History for KSHL - March, 2014

Change the Weather History Date:

Sunday, March 30, 2014

  Actual Average Record
Temperature  
Mean Temperature 54 °F -  
Max Temperature 68 °F 51 °F 85 °F (1968)
Min Temperature 39 °F 28 °F -3 °F (1969)
Degree Days  
Heating Degree Days 12    
Growing Degree Days 4 (Base 50)    
Moisture  
Dew Point 34 °F    
Average Humidity 51    
Maximum Humidity 70    
Minimum Humidity 28    
Precipitation  
Precipitation 0.00 in - - ()
Sea Level Pressure  
Sea Level Pressure 29.78 in    
Wind  
Wind Speed 17 mph (South)    
Max Wind Speed 23 mph    
Max Gust Speed 31 mph    
Visibility 9 miles    
Events      
Averages and records for this station are not official NWS values.
T = Trace of Precipitation, MM = Missing Value Source: NWS Daily Summary

Daily Weather History Graph

Daily Weather History Graph

Search for Another Location

Airport or City:

Trip Planner

Search our weather history database for the weather conditions in past years. The results will help you decide how hot, cold, wet, or windy it might be!

Date:

Astronomy

Mar. 30, 2014 Rise Set
Actual Time 7:08 AM CDT 7:47 PM CDT
Civil Twilight 6:40 AM CDT 8:16 PM CDT
Nautical Twilight 6:06 AM CDT 8:50 PM CDT
Astronomical Twilight 5:31 AM CDT 9:25 PM CDT
Moon 6:55 AM CDT (3/30) 8:02 PM CDT (3/30)
Length of Visible Light 13h 36m
Length of Day
12h 38m
Waning Crescent, 0% of the Moon is Illuminated
Mar 30
Waning Crescent
Mar 30
New
Apr 7
First Quarter
Apr 15
Full
Apr 22
Last Quarter

Hourly Weather History & Observations

Time (CDT) Temp. Windchill Dew Point Humidity Pressure Visibility Wind Dir Wind Speed Gust Speed Precip Events Conditions
12:15 AM 39.2 °F 29.6 °F 28.4 °F 65% 29.93 in 10.0 mi SSE 19.6 mph - N/A   Partly Cloudy
12:35 AM 39.2 °F 30.2 °F 28.4 °F 65% 29.93 in 10.0 mi South 17.3 mph 24.2 mph N/A   Clear
12:55 AM 39.2 °F 30.8 °F 28.4 °F 65% 29.93 in 10.0 mi South 15.0 mph 21.9 mph N/A   Clear
1:15 AM 39.2 °F 30.5 °F 30.2 °F 70% 29.93 in 10.0 mi South 16.1 mph 21.9 mph N/A   Mostly Cloudy
1:35 AM 39.2 °F 30.2 °F 30.2 °F 70% 29.92 in 10.0 mi South 17.3 mph - N/A   Scattered Clouds
1:55 AM 39.2 °F 29.8 °F 30.2 °F 70% 29.91 in 10.0 mi South 18.4 mph - N/A   Partly Cloudy
2:15 AM 39.2 °F 30.2 °F 30.2 °F 70% 29.90 in 10.0 mi South 17.3 mph - N/A   Partly Cloudy
2:35 AM 39.2 °F 30.5 °F 30.2 °F 70% 29.89 in 10.0 mi South 16.1 mph 23.0 mph N/A   Partly Cloudy
2:55 AM 39.2 °F 30.2 °F 30.2 °F 70% 29.88 in 10.0 mi South 17.3 mph - N/A   Mostly Cloudy
3:15 AM 39.2 °F 30.5 °F 30.2 °F 70% 29.87 in 10.0 mi South 16.1 mph 21.9 mph N/A   Overcast
3:35 AM 39.2 °F 30.5 °F 30.2 °F 70% 29.87 in 10.0 mi South 16.1 mph - N/A   Overcast
3:55 AM 41.0 °F 32.5 °F 30.2 °F 65% 29.87 in 10.0 mi South 17.3 mph - N/A   Overcast
4:15 AM 41.0 °F 32.8 °F 30.2 °F 65% 29.86 in 10.0 mi South 16.1 mph - N/A   Overcast
4:35 AM 42.8 °F 34.5 °F 32.0 °F 66% 29.85 in 9.0 mi South 18.4 mph 26.5 mph N/A   Overcast
4:55 AM 42.8 °F 34.0 °F 32.0 °F 66% 29.84 in 8.0 mi South 20.7 mph 28.8 mph N/A   Scattered Clouds
5:15 AM 42.8 °F 34.0 °F 32.0 °F 66% 29.84 in 8.0 mi South 20.7 mph 27.6 mph N/A   Clear
5:35 AM 42.8 °F 33.8 °F 32.0 °F 66% 29.84 in 8.0 mi South 21.9 mph - N/A   Clear
5:55 AM 42.8 °F 34.5 °F 32.0 °F 66% 29.84 in 8.0 mi South 18.4 mph 26.5 mph N/A   Clear
6:15 AM 42.8 °F 34.5 °F 32.0 °F 66% 29.83 in 8.0 mi South 18.4 mph 25.3 mph N/A   Clear
6:35 AM 42.8 °F 34.0 °F 32.0 °F 66% 29.84 in 8.0 mi South 20.7 mph - N/A   Clear
6:55 AM 42.8 °F 34.3 °F 32.0 °F 66% 29.83 in 8.0 mi South 19.6 mph 27.6 mph N/A   Clear
7:15 AM 42.8 °F 33.8 °F 32.0 °F 66% 29.83 in 6.0 mi South 21.9 mph 31.1 mph N/A   Haze
7:35 AM 42.8 °F 34.0 °F 32.0 °F 66% 29.83 in 6.0 mi South 20.7 mph - N/A   Haze
7:55 AM 42.8 °F 33.8 °F 32.0 °F 66% 29.83 in 6.0 mi South 21.9 mph - N/A   Haze
8:15 AM 44.6 °F 37.8 °F 32.0 °F 61% 29.86 in 6.0 mi SSW 15.0 mph 24.2 mph N/A   Haze
8:35 AM 44.6 °F 37.2 °F 32.0 °F 61% 29.85 in 6.0 mi SSW 17.3 mph 24.2 mph N/A   Haze
8:55 AM 46.4 °F 39.8 °F 32.0 °F 57% 29.85 in 6.0 mi SSW 16.1 mph 23.0 mph N/A   Haze
9:15 AM 48.2 °F - 32.0 °F 54% 29.85 in 6.0 mi South 20.7 mph - N/A   Haze
9:35 AM 48.2 °F - 32.0 °F 54% 29.85 in 6.0 mi SSW 20.7 mph 26.5 mph N/A   Haze
9:55 AM 50.0 °F - 32.0 °F 50% 29.84 in 6.0 mi SSW 20.7 mph 27.6 mph N/A   Haze
10:15 AM 51.8 °F - 33.8 °F 50% 29.83 in 7.0 mi SSW 23.0 mph 31.1 mph N/A   Clear
10:35 AM 53.6 °F - 33.8 °F 47% 29.83 in 7.0 mi SSW 17.3 mph 23.0 mph N/A   Clear
10:55 AM 53.6 °F - 33.8 °F 47% 29.83 in 8.0 mi SSW 19.6 mph 29.9 mph N/A   Clear
11:15 AM 55.4 °F - 33.8 °F 44% 29.83 in 8.0 mi SSW 21.9 mph 27.6 mph N/A   Clear
11:35 AM 57.2 °F - 33.8 °F 41% 29.82 in 8.0 mi SSW 17.3 mph 25.3 mph N/A   Clear
11:55 AM 57.2 °F - 33.8 °F 41% 29.81 in 8.0 mi SSW 18.4 mph 26.5 mph N/A   Clear
12:15 PM 59.0 °F - 33.8 °F 39% 29.80 in 8.0 mi SSW 15.0 mph 25.3 mph N/A   Clear
12:35 PM 59.0 °F - 33.8 °F 39% 29.80 in 9.0 mi SSW 17.3 mph 24.2 mph N/A   Clear
12:55 PM 60.8 °F - 35.6 °F 39% 29.78 in 9.0 mi SSW 20.7 mph - N/A   Clear
1:15 PM 62.6 °F - 35.6 °F 37% 29.78 in 9.0 mi SSW 16.1 mph 24.2 mph N/A   Clear
1:35 PM 64.4 °F - 35.6 °F 34% 29.77 in 10.0 mi SSW 15.0 mph 23.0 mph N/A   Clear
1:55 PM 64.4 °F - 33.8 °F 32% 29.77 in 10.0 mi South 16.1 mph - N/A   Clear
2:15 PM 64.4 °F - 35.6 °F 34% 29.76 in 10.0 mi South 16.1 mph 24.2 mph N/A   Clear
2:35 PM 64.4 °F - 33.8 °F 32% 29.75 in 10.0 mi South 16.1 mph - N/A   Clear
2:55 PM 64.4 °F - 33.8 °F 32% 29.74 in 10.0 mi South 17.3 mph - N/A   Clear
3:15 PM 64.4 °F - 35.6 °F 34% 29.73 in 10.0 mi South 13.8 mph 20.7 mph N/A   Clear
3:35 PM 66.2 °F - 35.6 °F 32% 29.73 in 10.0 mi South 19.6 mph - N/A   Clear
3:55 PM 66.2 °F - 33.8 °F 30% 29.72 in 10.0 mi South 20.7 mph - N/A   Clear
4:15 PM 66.2 °F - 33.8 °F 30% 29.72 in 10.0 mi South 18.4 mph 26.5 mph N/A   Clear
4:35 PM 68.0 °F - 35.6 °F 30% 29.72 in 10.0 mi South 16.1 mph 21.9 mph N/A   Clear
4:55 PM 68.0 °F - 35.6 °F 30% 29.70 in 10.0 mi South 17.3 mph 23.0 mph N/A   Clear
5:15 PM 68.0 °F - 33.8 °F 28% 29.69 in 10.0 mi South 12.7 mph 18.4 mph N/A   Clear
5:35 PM 68.0 °F - 35.6 °F 30% 29.69 in 10.0 mi South 15.0 mph - N/A   Clear
5:55 PM 68.0 °F - 35.6 °F 30% 29.68 in 10.0 mi SSE 10.4 mph - N/A   Clear
6:15 PM 68.0 °F - 35.6 °F 30% 29.68 in 10.0 mi SSE 12.7 mph - N/A   Clear
6:35 PM 66.2 °F - 35.6 °F 32% 29.67 in 10.0 mi SSE 10.4 mph - N/A   Clear
6:55 PM 64.4 °F - 35.6 °F 34% 29.67 in 10.0 mi South 8.1 mph - N/A   Clear
7:15 PM 60.8 °F - 35.6 °F 39% 29.66 in 10.0 mi SSE 9.2 mph - N/A   Clear
7:35 PM 59.0 °F - 35.6 °F 42% 29.66 in 10.0 mi SE 8.1 mph - N/A   Clear
7:55 PM 57.2 °F - 35.6 °F 44% 29.66 in 10.0 mi SE 6.9 mph - N/A   Clear
8:15 PM 51.8 °F - 35.6 °F 54% 29.66 in 10.0 mi East 6.9 mph - N/A   Clear
8:35 PM 51.8 °F - 37.4 °F 58% 29.66 in 10.0 mi ESE 9.2 mph - N/A   Clear
8:55 PM 50.0 °F - 35.6 °F 58% 29.66 in 10.0 mi SE 5.8 mph - N/A   Clear
9:15 PM 50.0 °F - 35.6 °F 58% 29.66 in 10.0 mi SE 4.6 mph - N/A   Clear
9:35 PM 50.0 °F - 35.6 °F 58% 29.66 in 10.0 mi ESE 10.4 mph - N/A   Clear
9:55 PM 53.6 °F - 37.4 °F 54% 29.65 in 10.0 mi SE 11.5 mph - N/A   Clear
10:15 PM 53.6 °F - 37.4 °F 54% 29.65 in 10.0 mi SE 10.4 mph - N/A   Clear
10:35 PM 53.6 °F - 37.4 °F 54% 29.64 in 10.0 mi SE 11.5 mph - N/A   Partly Cloudy
10:55 PM 53.6 °F - 37.4 °F 54% 29.63 in 10.0 mi SE 13.8 mph - N/A   Clear
11:15 PM 51.8 °F - 37.4 °F 58% 29.62 in 10.0 mi SE 13.8 mph - N/A   Clear
11:35 PM 53.6 °F - 37.4 °F 54% 29.62 in 10.0 mi SSE 13.8 mph - N/A   Clear
11:55 PM 55.4 °F - 37.4 °F 51% 29.62 in 10.0 mi SSE 16.1 mph - N/A   Clear